createdAt,value
2022-11-27T00:00:12.870Z,7.40
2022-11-27T00:02:42.143Z,7.40
2022-11-27T00:05:10.389Z,7.40
2022-11-27T00:07:38.340Z,7.40
2022-11-27T00:10:07.046Z,7.40
2022-11-27T00:12:34.890Z,7.40
2022-11-27T00:15:03.548Z,7.40
2022-11-27T00:17:31.442Z,7.40
2022-11-27T00:20:00.651Z,7.40
2022-11-27T00:22:28.965Z,7.40
2022-11-27T00:24:56.767Z,7.40
2022-11-27T00:27:24.922Z,7.50
2022-11-27T00:29:52.800Z,7.50
2022-11-27T00:32:20.624Z,7.50
2022-11-27T00:34:48.457Z,7.50
2022-11-27T00:37:17.646Z,7.50
2022-11-27T00:39:45.476Z,7.50
2022-11-27T00:42:13.320Z,7.50
2022-11-27T00:44:41.239Z,7.50
2022-11-27T00:47:09.344Z,7.50
2022-11-27T00:49:37.158Z,7.50
2022-11-27T00:52:05.407Z,7.50
2022-11-27T00:54:34.679Z,7.40
2022-11-27T00:57:02.515Z,7.40
2022-11-27T00:59:30.338Z,7.40
2022-11-27T01:01:58.248Z,7.40
2022-11-27T01:04:26.110Z,7.50
2022-11-27T01:06:53.965Z,7.50
2022-11-27T01:09:21.814Z,7.50
2022-11-27T01:11:51.025Z,7.50
2022-11-27T01:14:19.833Z,7.50
2022-11-27T01:16:47.671Z,7.50
2022-11-27T01:19:16.313Z,7.50
2022-11-27T01:21:44.129Z,7.50
2022-11-27T01:24:13.021Z,7.50
2022-11-27T01:26:40.829Z,7.50
2022-11-27T01:29:10.033Z,7.50
2022-11-27T01:31:37.941Z,7.50
2022-11-27T01:34:08.799Z,7.50
2022-11-27T01:36:37.083Z,7.50
2022-11-27T01:39:05.649Z,7.50
2022-11-27T01:41:34.287Z,7.50
2022-11-27T01:44:02.891Z,7.50
2022-11-27T01:46:36.080Z,7.40
2022-11-27T01:49:17.341Z,7.50
2022-11-27T01:51:46.193Z,7.50
2022-11-27T01:54:14.222Z,7.50
2022-11-27T01:56:44.577Z,7.50
2022-11-27T01:59:12.721Z,7.40
2022-11-27T02:01:41.934Z,7.40
2022-11-27T02:04:09.785Z,7.50
2022-11-27T02:06:37.619Z,7.50
2022-11-27T02:09:05.551Z,7.40
2022-11-27T02:11:37.278Z,7.40
2022-11-27T02:14:15.954Z,7.40
2022-11-27T02:16:49.595Z,7.40
2022-11-27T02:19:25.357Z,7.40
2022-11-27T02:21:55.601Z,7.40
2022-11-27T02:24:42.281Z,7.40
2022-11-27T02:27:16.330Z,7.40
2022-11-27T02:29:47.175Z,7.40
2022-11-27T02:32:17.300Z,7.40
2022-11-27T02:34:48.409Z,7.40
2022-11-27T02:37:19.526Z,7.40
2022-11-27T02:39:50.999Z,7.40
2022-11-27T02:42:21.245Z,7.40
2022-11-27T02:44:54.143Z,7.40
2022-11-27T02:47:22.666Z,7.40
2022-11-27T02:49:52.152Z,7.40
2022-11-27T02:52:21.003Z,7.40
2022-11-27T02:54:49.874Z,7.40
2022-11-27T02:57:19.897Z,7.40
2022-11-27T02:59:47.916Z,7.40
2022-11-27T03:02:19.807Z,7.40
2022-11-27T03:04:50.917Z,7.40
2022-11-27T03:07:21.244Z,7.40
2022-11-27T03:09:50.539Z,7.40
2022-11-27T03:12:18.884Z,7.40
2022-11-27T03:14:47.367Z,7.40
2022-11-27T03:17:21.162Z,7.40
2022-11-27T03:19:51.944Z,7.40
2022-11-27T03:22:19.953Z,7.40
2022-11-27T03:24:49.871Z,7.40
2022-11-27T03:27:20.468Z,7.40
2022-11-27T03:29:49.696Z,7.40
2022-11-27T03:32:19.568Z,7.40
2022-11-27T03:34:48.162Z,7.40
2022-11-27T03:37:16.090Z,7.40
2022-11-27T03:39:44.153Z,7.50
2022-11-27T03:42:16.022Z,7.50
2022-11-27T03:44:46.053Z,7.50
2022-11-27T03:47:20.839Z,7.40
2022-11-27T03:49:56.520Z,7.50
2022-11-27T03:52:28.068Z,7.50
2022-11-27T03:55:00.688Z,7.50
2022-11-27T03:57:30.256Z,7.50
2022-11-27T04:00:00.011Z,7.50
2022-11-27T04:02:29.479Z,7.50
2022-11-27T04:04:58.844Z,7.50
2022-11-27T04:07:26.867Z,7.50
2022-11-27T04:09:54.712Z,7.50
2022-11-27T04:12:22.584Z,7.50
2022-11-27T04:14:50.452Z,7.60
2022-11-27T04:17:18.245Z,7.50
2022-11-27T04:19:46.096Z,7.60
2022-11-27T04:22:15.259Z,7.60
2022-11-27T04:24:43.098Z,7.60
2022-11-27T04:27:10.977Z,7.60
2022-11-27T04:29:38.786Z,7.60
2022-11-27T04:32:06.769Z,7.60
2022-11-27T04:34:34.614Z,7.60
2022-11-27T04:37:02.438Z,7.70
2022-11-27T04:39:31.876Z,7.60
2022-11-27T04:41:59.748Z,7.60
2022-11-27T04:44:27.695Z,7.60
2022-11-27T04:46:55.643Z,7.60
2022-11-27T04:49:23.516Z,7.60
2022-11-27T04:51:51.315Z,7.70
2022-11-27T04:54:19.123Z,7.60
2022-11-27T04:56:48.311Z,7.70
2022-11-27T04:59:16.151Z,7.60
2022-11-27T05:01:44.021Z,7.60
2022-11-27T05:04:11.859Z,7.60
2022-11-27T05:06:39.705Z,7.60
2022-11-27T05:09:07.566Z,7.60
2022-11-27T05:11:35.763Z,7.60
2022-11-27T05:14:17.903Z,7.60
2022-11-27T05:16:47.002Z,7.60
2022-11-27T05:19:16.100Z,7.60
2022-11-27T05:21:44.334Z,7.60
2022-11-27T05:24:12.584Z,7.60
2022-11-27T05:26:40.635Z,7.60
2022-11-27T05:29:10.506Z,7.60
2022-11-27T05:31:38.700Z,7.60
2022-11-27T05:34:07.250Z,7.50
2022-11-27T05:36:35.235Z,7.50
2022-11-27T05:39:03.923Z,7.50
2022-11-27T05:41:31.793Z,7.50
2022-11-27T05:43:59.639Z,7.50
2022-11-27T05:46:28.980Z,7.50
2022-11-27T05:48:56.921Z,7.50
2022-11-27T05:51:24.826Z,7.40
2022-11-27T05:53:52.706Z,7.50
2022-11-27T05:56:20.556Z,7.40
2022-11-27T05:58:49.379Z,7.40
2022-11-27T06:01:18.981Z,7.40
2022-11-27T06:03:48.640Z,7.40
2022-11-27T06:06:17.728Z,7.40
2022-11-27T06:08:46.177Z,7.40
2022-11-27T06:11:15.338Z,7.40
2022-11-27T06:13:43.381Z,7.30
2022-11-27T06:16:16.117Z,7.40
2022-11-27T06:18:44.069Z,7.30
2022-11-27T06:21:14.364Z,7.30
2022-11-27T06:23:42.998Z,7.40
2022-11-27T06:26:15.079Z,7.40
2022-11-27T06:28:42.929Z,7.40
2022-11-27T06:31:17.312Z,7.40
2022-11-27T06:33:45.599Z,7.40
2022-11-27T06:36:14.941Z,7.30
2022-11-27T06:38:43.363Z,7.40
2022-11-27T06:41:12.004Z,7.40
2022-11-27T06:43:40.352Z,7.30
2022-11-27T06:46:08.916Z,7.40
2022-11-27T06:48:36.781Z,7.40
2022-11-27T06:51:05.630Z,7.40
2022-11-27T06:53:35.598Z,7.40
2022-11-27T06:56:03.796Z,7.40
2022-11-27T06:58:31.659Z,7.40
2022-11-27T07:01:00.019Z,7.40
2022-11-27T07:03:28.008Z,7.40
2022-11-27T07:05:55.994Z,7.50
2022-11-27T07:08:23.832Z,7.50
2022-11-27T07:10:53.051Z,7.50
2022-11-27T07:13:21.004Z,7.40
2022-11-27T07:15:48.834Z,7.50
2022-11-27T07:18:16.666Z,7.40
2022-11-27T07:20:44.491Z,7.40
2022-11-27T07:23:12.342Z,7.50
2022-11-27T07:25:40.206Z,7.50
2022-11-27T07:28:09.405Z,7.50
2022-11-27T07:30:37.250Z,7.50
2022-11-27T07:33:05.178Z,7.50
2022-11-27T07:35:33.003Z,7.50
2022-11-27T07:38:00.857Z,7.50
2022-11-27T07:40:28.679Z,7.60
2022-11-27T07:42:56.542Z,7.60
2022-11-27T07:45:25.717Z,7.60
2022-11-27T07:47:53.636Z,7.60
2022-11-27T07:50:21.481Z,7.60
2022-11-27T07:52:49.278Z,7.60
2022-11-27T07:55:17.221Z,7.70
2022-11-27T07:57:45.086Z,7.60
2022-11-27T08:00:13.349Z,7.60
2022-11-27T08:02:42.569Z,7.60
2022-11-27T08:05:12.978Z,7.60
2022-11-27T08:07:41.305Z,7.60
2022-11-27T08:10:09.552Z,7.60
2022-11-27T08:12:37.452Z,7.70
2022-11-27T08:15:05.801Z,7.70
2022-11-27T08:17:33.650Z,7.70
2022-11-27T08:20:02.844Z,7.70
2022-11-27T08:22:30.696Z,7.70
2022-11-27T08:24:58.555Z,7.70
2022-11-27T08:27:26.431Z,7.70
2022-11-27T08:29:54.282Z,7.70
2022-11-27T08:32:22.072Z,7.70
2022-11-27T08:34:49.904Z,7.70
2022-11-27T08:37:19.089Z,7.70
2022-11-27T08:39:46.927Z,7.70
2022-11-27T08:42:14.828Z,7.80
2022-11-27T08:44:43.146Z,7.80
2022-11-27T08:47:11.205Z,7.70
2022-11-27T08:49:42.524Z,7.80
2022-11-27T08:52:12.787Z,7.80
2022-11-27T08:54:42.451Z,7.90
2022-11-27T08:57:10.439Z,7.90
2022-11-27T08:59:38.360Z,7.90
2022-11-27T09:02:06.216Z,7.90
2022-11-27T09:04:34.153Z,7.90
2022-11-27T09:07:02.037Z,7.90
2022-11-27T09:09:29.879Z,8.00
2022-11-27T09:11:59.073Z,8.00
2022-11-27T09:14:26.958Z,8.00
2022-11-27T09:16:54.927Z,8.00
2022-11-27T09:19:22.857Z,8.10
2022-11-27T09:21:50.754Z,8.00
2022-11-27T09:24:18.806Z,8.00
2022-11-27T09:26:46.746Z,8.10
2022-11-27T09:29:15.960Z,8.10
2022-11-27T09:31:43.853Z,8.10
2022-11-27T09:34:11.726Z,8.10
2022-11-27T09:36:39.545Z,8.10
2022-11-27T09:39:07.461Z,8.10
2022-11-27T09:41:53.618Z,7.90
2022-11-27T09:44:32.503Z,8.10
2022-11-27T09:47:01.061Z,8.10
2022-11-27T09:49:32.002Z,8.10
2022-11-27T09:52:03.396Z,8.10
2022-11-27T09:54:34.549Z,8.00
2022-11-27T09:57:02.719Z,8.10
2022-11-27T09:59:37.403Z,8.00
2022-11-27T10:02:11.172Z,8.00
2022-11-27T10:05:05.645Z,8.00
2022-11-27T10:07:30.924Z,8.00
2022-11-27T10:10:05.036Z,8.00
2022-11-27T10:12:37.219Z,8.00
2022-11-27T10:15:08.221Z,8.00
2022-11-27T10:17:39.933Z,8.00
2022-11-27T10:20:14.695Z,8.10
2022-11-27T10:22:46.224Z,8.00
2022-11-27T10:25:17.703Z,8.00
2022-11-27T10:27:48.857Z,8.00
2022-11-27T10:30:19.389Z,8.00
2022-11-27T10:32:56.436Z,8.00
2022-11-27T10:35:25.470Z,8.00
2022-11-27T10:37:54.522Z,8.10
2022-11-27T10:40:24.300Z,8.10
2022-11-27T10:42:55.522Z,8.10
2022-11-27T10:45:26.214Z,8.10
2022-11-27T10:47:54.116Z,8.10
2022-11-27T10:50:22.132Z,8.10
2022-11-27T10:52:54.430Z,8.10
2022-11-27T10:55:26.589Z,8.10
2022-11-27T10:58:04.240Z,8.10
2022-11-27T11:00:33.514Z,8.10
2022-11-27T11:03:02.184Z,8.20
2022-11-27T11:05:41.341Z,8.20
2022-11-27T11:08:19.351Z,8.20
2022-11-27T11:10:51.798Z,8.30
2022-11-27T11:13:20.431Z,8.30
2022-11-27T11:15:51.928Z,8.30
2022-11-27T11:18:20.867Z,8.30
2022-11-27T11:20:49.826Z,8.30
2022-11-27T11:23:30.800Z,8.30
2022-11-27T11:26:00.876Z,8.40
2022-11-27T11:28:28.860Z,8.30
2022-11-27T11:31:01.005Z,8.40
2022-11-27T11:33:29.356Z,8.40
2022-11-27T11:36:02.552Z,8.40
2022-11-27T11:38:32.222Z,8.50
2022-11-27T11:41:01.648Z,8.60
2022-11-27T11:43:30.027Z,8.70
2022-11-27T11:46:08.529Z,8.70
2022-11-27T11:48:37.263Z,8.60
2022-11-27T11:51:09.172Z,8.70
2022-11-27T11:53:38.235Z,8.70
2022-11-27T11:56:16.801Z,8.70
2022-11-27T11:58:51.061Z,8.80
2022-11-27T12:01:27.849Z,8.80
2022-11-27T12:04:03.694Z,8.90
2022-11-27T12:06:36.713Z,8.90
2022-11-27T12:09:11.327Z,8.90
2022-11-27T12:11:44.606Z,8.80
2022-11-27T12:14:18.112Z,8.90
2022-11-27T12:17:01.585Z,8.90
2022-11-27T12:19:40.345Z,8.80
2022-11-27T12:22:14.603Z,8.90
2022-11-27T12:24:48.353Z,8.90
2022-11-27T12:27:22.036Z,8.90
2022-11-27T12:29:56.790Z,8.90
2022-11-27T12:32:29.729Z,8.90
2022-11-27T12:35:04.282Z,8.90
2022-11-27T12:37:41.476Z,8.90
2022-11-27T12:40:18.957Z,8.90
2022-11-27T12:42:49.518Z,8.90
2022-11-27T12:45:20.490Z,8.90
2022-11-27T12:47:52.882Z,8.90
2022-11-27T12:50:23.351Z,8.80
2022-11-27T12:52:54.181Z,8.80
2022-11-27T12:55:25.433Z,8.90
2022-11-27T12:57:56.126Z,8.90
2022-11-27T13:00:24.987Z,8.90
2022-11-27T13:03:01.152Z,8.90
2022-11-27T13:05:30.731Z,8.90
2022-11-27T13:08:01.479Z,8.80
2022-11-27T13:10:33.481Z,8.80
2022-11-27T13:13:03.744Z,8.80
2022-11-27T13:15:32.517Z,8.80
2022-11-27T13:18:05.738Z,8.80
2022-11-27T13:20:36.019Z,8.80
2022-11-27T13:23:03.870Z,8.80
2022-11-27T13:25:32.913Z,8.80
2022-11-27T13:28:03.141Z,8.80
2022-11-27T13:30:32.957Z,8.80
2022-11-27T13:33:02.672Z,8.70
2022-11-27T13:35:31.986Z,8.70
2022-11-27T13:38:04.562Z,8.70
2022-11-27T13:40:33.936Z,8.70
2022-11-27T13:43:04.653Z,8.70
2022-11-27T13:45:33.881Z,8.80
2022-11-27T13:48:06.567Z,8.70
2022-11-27T13:50:43.554Z,8.70
2022-11-27T13:53:12.761Z,8.70
2022-11-27T13:55:42.028Z,8.70
2022-11-27T13:58:09.929Z,8.70
2022-11-27T14:00:38.653Z,8.70
2022-11-27T14:03:10.484Z,8.70
2022-11-27T14:05:41.112Z,8.70
2022-11-27T14:08:19.730Z,8.60
2022-11-27T14:10:52.793Z,8.60
2022-11-27T14:13:24.858Z,8.60
2022-11-27T14:16:01.603Z,8.60
2022-11-27T14:18:31.432Z,8.60
2022-11-27T14:21:01.209Z,8.50
2022-11-27T14:23:30.321Z,8.50
2022-11-27T14:26:14.694Z,8.50
2022-11-27T14:28:43.821Z,8.50
2022-11-27T14:31:23.027Z,8.50
2022-11-27T14:36:40.197Z,8.50
2022-11-27T14:39:09.070Z,8.50
2022-11-27T14:41:36.926Z,8.50
2022-11-27T14:44:05.591Z,8.50
2022-11-27T14:46:34.666Z,8.50
2022-11-27T14:49:04.111Z,8.40
2022-11-27T14:51:33.489Z,8.50
2022-11-27T14:54:02.665Z,8.50
2022-11-27T14:56:33.561Z,8.50
2022-11-27T14:59:02.046Z,8.40
2022-11-27T15:01:31.147Z,8.50
2022-11-27T15:03:59.343Z,8.40
2022-11-27T15:06:30.952Z,8.50
2022-11-27T15:09:29.822Z,8.40
2022-11-27T15:11:56.306Z,8.40
2022-11-27T15:14:25.030Z,8.40
2022-11-27T15:16:53.482Z,8.50
2022-11-27T15:19:26.333Z,8.40
2022-11-27T15:21:55.629Z,8.40
2022-11-27T15:24:30.705Z,8.40
2022-11-27T15:27:08.216Z,8.40
2022-11-27T15:29:37.767Z,8.40
2022-11-27T15:32:21.854Z,8.40
2022-11-27T15:34:51.816Z,8.30
2022-11-27T15:37:22.812Z,8.30
2022-11-27T15:39:51.794Z,8.30
2022-11-27T15:42:20.457Z,8.30
2022-11-27T15:44:49.158Z,8.30
2022-11-27T15:47:22.873Z,8.30
2022-11-27T15:49:50.804Z,8.30
2022-11-27T15:52:18.988Z,8.30
2022-11-27T15:54:48.215Z,8.30
2022-11-27T15:57:16.079Z,8.30
2022-11-27T15:59:43.929Z,8.30
2022-11-27T16:02:17.504Z,8.30
2022-11-27T16:04:45.837Z,8.30
2022-11-27T16:07:13.768Z,8.20
2022-11-27T16:09:41.580Z,8.20
2022-11-27T16:12:10.808Z,8.20
2022-11-27T16:14:39.049Z,8.20
2022-11-27T16:17:07.120Z,8.20
2022-11-27T16:19:34.958Z,8.20
2022-11-27T16:22:02.821Z,8.30
2022-11-27T16:24:30.756Z,8.20
2022-11-27T16:26:58.594Z,8.30
2022-11-27T16:29:27.834Z,8.40
2022-11-27T16:31:56.978Z,8.30
2022-11-27T16:34:24.875Z,8.50
2022-11-27T16:36:52.725Z,8.30
2022-11-27T16:39:20.584Z,8.50
2022-11-27T16:41:48.488Z,8.50
2022-11-27T16:44:16.460Z,8.10
2022-11-27T16:46:45.902Z,8.40
2022-11-27T16:49:14.092Z,8.40
2022-11-27T16:51:42.012Z,8.10
2022-11-27T16:54:11.201Z,8.50
2022-11-27T16:56:39.447Z,8.10
2022-11-27T16:59:08.624Z,8.10
2022-11-27T17:01:36.985Z,8.30
2022-11-27T17:04:09.003Z,8.10
2022-11-27T17:06:37.806Z,8.30
2022-11-27T17:09:06.697Z,8.10
2022-11-27T17:11:35.720Z,8.00
2022-11-27T17:14:05.026Z,8.10
2022-11-27T17:16:32.888Z,7.90
2022-11-27T17:19:00.837Z,8.10
2022-11-27T17:24:00.887Z,7.90
2022-11-27T17:26:30.117Z,8.10
2022-11-27T17:28:59.513Z,8.20
2022-11-27T17:31:28.380Z,8.00
2022-11-27T17:33:56.787Z,8.00
2022-11-27T17:36:24.773Z,8.00
2022-11-27T17:38:53.578Z,8.00
2022-11-27T17:41:22.843Z,7.90
2022-11-27T17:46:22.216Z,7.90
2022-11-27T17:53:46.677Z,8.20
2022-11-27T17:56:15.614Z,8.10
2022-11-27T17:58:45.136Z,8.10
2022-11-27T18:01:15.699Z,7.90
2022-11-27T18:03:43.630Z,8.00
2022-11-27T18:06:11.437Z,8.00
2022-11-27T18:08:39.260Z,7.90
2022-11-27T18:11:08.253Z,7.90
2022-11-27T18:13:36.116Z,7.70
2022-11-27T18:16:10.273Z,8.20
2022-11-27T18:18:38.631Z,8.00
2022-11-27T18:21:08.618Z,8.00
2022-11-27T18:23:49.654Z,8.00
2022-11-27T18:26:45.515Z,7.90
2022-11-27T18:29:14.117Z,8.10
2022-11-27T18:31:43.500Z,7.90
2022-11-27T18:34:11.384Z,8.00
2022-11-27T18:36:39.244Z,8.20
2022-11-27T18:39:07.101Z,8.20
2022-11-27T18:41:35.095Z,8.00
2022-11-27T18:44:03.062Z,8.10
2022-11-27T18:46:31.942Z,7.90
2022-11-27T18:49:01.266Z,8.10
2022-11-27T18:51:29.150Z,8.00
2022-11-27T18:53:57.089Z,8.10
2022-11-27T18:56:25.722Z,8.20
2022-11-27T18:58:53.960Z,8.00
2022-11-27T19:01:23.199Z,8.00
2022-11-27T19:03:51.318Z,8.00
2022-11-27T19:06:21.586Z,8.00
2022-11-27T19:08:49.436Z,8.20
2022-11-27T19:11:18.778Z,8.00
2022-11-27T19:13:46.647Z,7.90
2022-11-27T19:16:15.251Z,7.90
2022-11-27T19:18:43.332Z,7.90
2022-11-27T19:21:11.844Z,7.90
2022-11-27T19:23:41.086Z,7.90
2022-11-27T19:26:09.297Z,7.90
2022-11-27T19:28:37.436Z,7.80
2022-11-27T19:31:05.754Z,7.80
2022-11-27T19:33:33.723Z,7.90
2022-11-27T20:13:12.442Z,8.00
2022-11-27T20:15:40.340Z,8.00
2022-11-27T20:18:08.190Z,8.00
2022-11-27T20:20:36.038Z,8.00
2022-11-27T20:23:03.883Z,8.30
2022-11-27T20:25:31.789Z,8.00
2022-11-27T20:27:59.661Z,8.00
2022-11-27T20:30:28.861Z,8.00
2022-11-27T20:32:56.710Z,8.00
2022-11-27T20:35:24.560Z,8.00
2022-11-27T20:37:52.420Z,8.00
2022-11-27T20:40:22.441Z,8.20
2022-11-27T20:42:50.478Z,8.10
2022-11-27T20:45:20.584Z,8.10
2022-11-27T20:47:49.994Z,8.10
2022-11-27T20:50:17.872Z,8.10
2022-11-27T20:52:46.893Z,8.20
2022-11-27T20:55:14.760Z,8.20
2022-11-27T20:57:42.604Z,8.20
2022-11-27T21:00:10.912Z,8.20
2022-11-27T21:02:40.716Z,8.30
2022-11-27T21:05:10.545Z,8.30
2022-11-27T21:07:39.633Z,8.30
2022-11-27T21:10:08.305Z,8.30
2022-11-27T21:12:36.281Z,8.40
2022-11-27T21:15:04.572Z,8.30
2022-11-27T21:17:32.554Z,8.40
2022-11-27T21:20:01.470Z,8.40
2022-11-27T21:22:30.667Z,8.40
2022-11-27T21:24:58.488Z,8.40
2022-11-27T21:27:26.364Z,8.50
2022-11-27T21:29:54.321Z,8.50
2022-11-27T21:32:23.457Z,8.60
2022-11-27T21:34:51.436Z,8.60
2022-11-27T21:37:19.373Z,8.70
2022-11-27T21:39:48.623Z,8.70
2022-11-27T21:42:16.460Z,8.80
2022-11-27T21:44:44.435Z,8.80
2022-11-27T21:47:12.639Z,8.80
2022-11-27T21:49:40.605Z,8.80
2022-11-27T21:52:08.463Z,8.90
2022-11-27T21:54:36.532Z,8.90
2022-11-27T21:57:05.752Z,8.90
2022-11-27T21:59:33.658Z,9.00
2022-11-27T22:02:01.551Z,9.00
2022-11-27T22:04:29.452Z,9.00
2022-11-27T22:06:57.278Z,9.00
2022-11-27T22:09:25.117Z,9.00
2022-11-27T22:11:53.290Z,9.10
2022-11-27T22:14:22.488Z,9.10
2022-11-27T22:16:50.397Z,9.10
2022-11-27T22:19:18.343Z,8.90
2022-11-27T22:21:46.180Z,9.20
2022-11-27T22:24:18.964Z,9.20
2022-11-27T22:26:47.682Z,9.20
2022-11-27T22:29:15.561Z,9.30
2022-11-27T22:31:44.804Z,9.30
2022-11-27T22:34:12.629Z,9.20
2022-11-27T22:36:40.459Z,9.30
2022-11-27T22:39:08.809Z,9.30
2022-11-27T22:41:37.522Z,9.30
2022-11-27T22:44:06.472Z,9.30
2022-11-27T22:46:35.494Z,9.30
2022-11-27T22:49:05.457Z,9.30
2022-11-27T22:51:34.387Z,9.30
2022-11-27T22:54:02.593Z,9.30
2022-11-27T22:56:30.454Z,9.30
2022-11-27T22:59:24.661Z,9.50
2022-11-27T23:01:48.552Z,9.40
2022-11-27T23:04:17.839Z,9.40
2022-11-27T23:06:48.050Z,9.40
2022-11-27T23:09:16.250Z,9.60
2022-11-27T23:11:44.153Z,9.40
2022-11-27T23:14:12.012Z,9.40
2022-11-27T23:16:40.052Z,9.40
2022-11-27T23:19:07.998Z,9.40
2022-11-27T23:21:38.623Z,9.50
2022-11-27T23:24:06.736Z,9.50
2022-11-27T23:26:35.002Z,9.50
2022-11-27T23:29:02.840Z,9.60
2022-11-27T23:31:32.462Z,9.50
2022-11-27T23:34:01.688Z,9.50
2022-11-27T23:36:29.969Z,9.50
2022-11-27T23:38:59.905Z,9.50
2022-11-27T23:41:27.817Z,9.40
2022-11-27T23:43:55.832Z,9.50
2022-11-27T23:46:26.305Z,9.40
2022-11-27T23:48:55.473Z,9.40
2022-11-27T23:51:25.029Z,9.40
2022-11-27T23:53:53.373Z,9.50
2022-11-27T23:56:23.585Z,9.40
2022-11-27T23:58:51.440Z,9.40
